Earby, United Kingdom
Current Conditions -  °F | °C
As of 5:20 AM on Sunday 21 Dec 2014 (Local Time) from EGNM Reporting Station
Broken Clouds Broken Clouds  
Wind Chill: 35°   Ceiling: 3100
Heat Index: 43°   Visibility: 6mi
Dew Point: 37°   Wind: 18mph
Humidity: 81%   Direction: 260°W
Pressure: 30.18"   Gusts: NA
Location:  53.92°N, 2.14°W
Report Text: EGNM 210520Z 26016KT 9999 BKN031 06/03 Q1022
Loading
Personal Weather Stations






























Interactive Weather Map New forecast layout! Learn more

10-Day Weather Forecast

Advertisements
Track Severe Weather on mobile